Time;durP1;ratioP1;P1;durP2;ratioP2;P2;SDS_P1;SDS_P2;PMS_P1;PMS_P2;Temp;Humidity;BMP_temperature;BMP_pressure;BME280_temperature;BME280_humidity;BME280_pressure;Samples;Min_cycle;Max_cycle;Signal;HPM_P1;HPM_P2
2023/09/10 00:00:56;;;;;;;2.22;1.10;;;;;;;33.03;26.26;100893.22;5043779;28;20049;-76
2023/09/10 00:03:25;;;;;;;2.03;0.95;;;;;;;33.10;25.16;100898.16;5043036;28;20080;-74
2023/09/10 00:05:59;;;;;;;3.28;1.23;;;;;;;33.11;24.83;100893.66;5049246;28;20053;-75
2023/09/10 00:08:28;;;;;;;3.28;1.15;;;;;;;33.07;25.51;100898.34;5044772;28;20049;-75
2023/09/10 00:10:57;;;;;;;4.80;1.30;;;;;;;32.96;25.90;100900.78;5043085;28;20114;-75
2023/09/10 00:13:26;;;;;;;2.90;1.20;;;;;;;32.89;25.84;100899.44;5044026;28;20041;-75
2023/09/10 00:16:02;;;;;;;1.65;1.00;;;;;;;32.80;26.06;100891.97;5042611;28;20053;-76
2023/09/10 00:18:30;;;;;;;1.77;1.27;;;;;;;32.72;26.46;100893.31;5044124;28;20075;-70
2023/09/10 00:21:00;;;;;;;2.55;1.30;;;;;;;32.65;26.04;100886.63;5044438;28;20048;-73
2023/09/10 00:23:29;;;;;;;8.05;1.17;;;;;;;32.66;26.16;100887.47;5043123;28;20112;-74
2023/09/10 00:25:58;;;;;;;2.85;1.10;;;;;;;32.68;26.32;100886.41;5046839;28;20569;-74
2023/09/10 00:28:29;;;;;;;2.60;1.40;;;;;;;32.69;26.25;100888.16;5042599;28;20057;-74
2023/09/10 00:30:59;;;;;;;2.17;1.30;;;;;;;32.69;25.85;100882.78;5038508;28;20091;-73
2023/09/10 00:33:28;;;;;;;2.50;1.00;;;;;;;32.72;26.15;100895.13;5041631;28;20536;-74
2023/09/10 00:35:58;;;;;;;2.00;1.20;;;;;;;32.69;25.04;100890.84;5046450;28;20044;-73
2023/09/10 00:38:30;;;;;;;1.00;0.85;;;;;;;32.62;25.74;100889.50;5042480;28;20053;-72
2023/09/10 00:40:58;;;;;;;3.97;1.45;;;;;;;32.61;26.12;100894.94;5048555;28;20056;-74
2023/09/10 00:43:27;;;;;;;1.23;1.00;;;;;;;32.42;26.38;100895.16;5044970;28;20045;-72
2023/09/10 00:45:56;;;;;;;3.92;1.45;;;;;;;32.25;26.87;100886.28;5046005;28;20053;-73
2023/09/10 00:48:26;;;;;;;8.02;1.45;;;;;;;32.12;26.52;100888.00;5046086;28;20044;-73
2023/09/10 00:50:55;;;;;;;2.42;1.15;;;;;;;32.04;26.89;100892.91;5057730;28;20049;-71
2023/09/10 00:53:24;;;;;;;4.50;1.40;;;;;;;32.01;26.98;100891.28;5053423;28;20052;-75
2023/09/10 00:55:54;;;;;;;1.95;1.08;;;;;;;32.03;26.60;100893.88;5050834;28;20037;-72
2023/09/10 00:58:22;;;;;;;2.28;1.30;;;;;;;32.03;26.77;100888.53;5047551;28;20037;-71
2023/09/10 01:00:55;;;;;;;4.35;1.20;;;;;;;31.99;27.39;100892.34;5045572;28;20071;-73
2023/09/10 01:03:26;;;;;;;2.08;1.02;;;;;;;31.98;27.67;100893.25;5044135;28;20081;-74
2023/09/10 01:05:55;;;;;;;2.35;1.15;;;;;;;31.95;27.38;100902.31;5048193;28;20065;-75
2023/09/10 01:08:23;;;;;;;9.13;5.20;;;;;;;31.88;27.70;100901.78;5049136;28;20049;-75
2023/09/10 01:11:00;;;;;;;5.90;4.57;;;;;;;31.82;27.54;100902.16;5047434;28;20045;-74
2023/09/10 01:13:39;;;;;;;4.28;1.85;;;;;;;31.67;27.19;100897.69;5050276;28;20046;-75
2023/09/10 01:16:19;;;;;;;6.40;1.20;;;;;;;31.55;28.60;100901.06;5050306;28;20052;-75
2023/09/10 01:18:57;;;;;;;4.15;1.20;;;;;;;31.41;28.28;100894.66;5046791;28;20142;-75
2023/09/10 01:21:47;;;;;;;2.58;1.40;;;;;;;31.30;27.80;100894.34;5049368;28;20045;-74
2023/09/10 01:24:30;;;;;;;2.55;1.20;;;;;;;31.19;27.67;100894.09;5046027;28;20041;-76
2023/09/10 01:27:01;;;;;;;3.33;1.17;;;;;;;31.13;27.86;100895.28;5048379;28;20044;-75
2023/09/10 01:29:33;;;;;;;5.65;1.52;;;;;;;31.09;29.22;100897.25;5049795;28;20301;-75
2023/09/10 01:32:07;;;;;;;4.60;1.65;;;;;;;31.02;28.12;100903.03;5048819;28;20109;-76
2023/09/10 01:34:43;;;;;;;11.60;7.75;;;;;;;30.93;29.17;100896.34;5033160;28;20140;-75
2023/09/10 01:37:20;;;;;;;3.90;1.55;;;;;;;30.92;28.85;100899.97;5026820;28;20084;-75
2023/09/10 01:39:55;;;;;;;4.45;1.10;;;;;;;30.89;28.04;100902.81;5049392;28;20044;-74
2023/09/10 01:42:26;;;;;;;1.95;1.10;;;;;;;30.86;29.06;100895.81;5047744;28;20045;-76
2023/09/10 01:44:55;;;;;;;4.25;1.30;;;;;;;30.78;30.34;100898.00;5046502;28;20119;-74
2023/09/10 01:47:24;;;;;;;8.43;1.55;;;;;;;30.67;29.22;100900.34;5048020;28;20048;-75
2023/09/10 01:50:00;;;;;;;2.83;1.38;;;;;;;30.59;30.17;100900.78;5044962;28;20150;-78
2023/09/10 01:52:28;;;;;;;2.35;1.70;;;;;;;30.50;31.06;100895.91;5046969;28;20630;-76
2023/09/10 01:54:57;;;;;;;2.63;1.67;;;;;;;30.38;32.19;100899.22;5050549;28;20060;-77
2023/09/10 01:57:27;;;;;;;2.33;1.27;;;;;;;30.22;32.22;100905.28;5047216;28;20052;-76
2023/09/10 01:59:58;;;;;;;3.70;1.27;;;;;;;30.05;32.75;100907.94;5049136;28;20037;-78
2023/09/10 02:02:27;;;;;;;3.27;1.30;;;;;;;29.93;32.64;100908.53;5051768;28;20045;-77
2023/09/10 02:04:56;;;;;;;2.97;1.88;;;;;;;29.82;33.78;100917.91;5046424;28;20049;-76
2023/09/10 02:07:24;;;;;;;3.10;1.73;;;;;;;29.70;34.15;100918.50;5046520;28;20050;-75
2023/09/10 02:09:55;;;;;;;11.35;2.58;;;;;;;29.59;31.66;100910.13;5041807;28;20056;-76
2023/09/10 02:12:24;;;;;;;5.87;1.53;;;;;;;29.50;30.89;100915.91;5044862;28;20049;-75
2023/09/10 02:14:54;;;;;;;7.70;1.80;;;;;;;29.40;31.47;100915.47;5045592;28;20041;-74
2023/09/10 02:17:22;;;;;;;6.88;1.40;;;;;;;29.36;31.89;100919.22;5049000;28;20604;-74
2023/09/10 02:19:51;;;;;;;7.95;1.40;;;;;;;29.29;32.41;100923.09;5045488;28;20049;-73
2023/09/10 02:22:19;;;;;;;8.07;1.30;;;;;;;29.23;32.53;100924.25;5043358;28;20118;-75
2023/09/10 02:24:50;;;;;;;6.78;1.88;;;;;;;29.16;33.52;100923.66;5046520;28;20052;-74
2023/09/10 02:27:19;;;;;;;5.25;1.65;;;;;;;29.06;34.43;100924.09;5047136;28;20052;-73
2023/09/10 02:29:47;;;;;;;3.15;1.30;;;;;;;28.94;34.05;100936.19;5044084;28;20065;-76
2023/09/10 02:32:26;;;;;;;9.38;1.80;;;;;;;28.78;35.32;100928.84;5041387;28;20118;-75
2023/09/10 02:34:54;;;;;;;5.32;1.30;;;;;;;28.63;35.04;100934.84;5050613;28;20673;-75
2023/09/10 02:37:30;;;;;;;6.18;1.60;;;;;;;28.50;36.64;100937.19;5038722;28;20053;-76
2023/09/10 02:40:07;;;;;;;6.13;1.60;;;;;;;28.34;37.39;100938.72;5039145;28;20138;-76
2023/09/10 02:42:36;;;;;;;7.90;1.73;;;;;;;28.16;37.46;100941.22;5040054;28;20122;-74
2023/09/10 02:45:05;;;;;;;3.50;1.70;;;;;;;28.02;36.82;100943.56;5041216;28;20053;-74
2023/09/10 02:47:35;;;;;;;5.30;1.40;;;;;;;27.90;37.03;100944.94;5040784;28;20056;-75
2023/09/10 02:50:13;;;;;;;2.22;1.38;;;;;;;27.77;37.27;100943.63;5036704;28;20072;-76
2023/09/10 02:52:42;;;;;;;4.88;1.50;;;;;;;27.63;37.73;100952.16;5044159;28;20049;-76
2023/09/10 02:55:10;;;;;;;3.75;1.50;;;;;;;27.49;38.20;100949.16;5045177;28;20129;-74
2023/09/10 03:00:25;;;;;;;6.20;1.27;;;;;;;27.12;40.36;100950.47;5038215;28;20041;-75
2023/09/10 03:02:56;;;;;;;5.65;1.67;;;;;;;26.97;43.69;100951.91;5056222;28;20068;-76
2023/09/10 03:05:30;;;;;;;5.38;1.60;;;;;;;26.81;43.88;100951.56;5041774;28;20056;-75
2023/09/10 03:07:59;;;;;;;3.30;1.42;;;;;;;26.70;42.72;100956.38;5033774;28;20045;-75
2023/09/10 03:10:27;;;;;;;5.80;1.70;;;;;;;26.63;40.95;100962.81;5046569;28;20060;-74
2023/09/10 03:12:56;;;;;;;2.65;1.52;;;;;;;26.57;42.10;100963.03;5038523;28;20049;-75
2023/09/10 03:15:29;;;;;;;3.13;1.90;;;;;;;26.49;41.52;100969.44;5040904;28;20058;-74
2023/09/10 03:17:59;;;;;;;6.38;2.13;;;;;;;26.42;41.25;100970.56;5040049;28;20048;-75
2023/09/10 03:20:28;;;;;;;7.22;2.17;;;;;;;26.36;42.07;100973.41;5044179;28;20527;-74
2023/09/10 03:22:59;;;;;;;5.97;1.70;;;;;;;26.27;41.39;100977.25;5043069;28;20053;-78
2023/09/10 03:25:28;;;;;;;2.40;1.80;;;;;;;26.21;41.14;100982.72;5047574;28;20630;-78
2023/09/10 03:28:02;;;;;;;3.20;1.80;;;;;;;26.15;42.27;100972.31;5040560;28;20138;-76
2023/09/10 03:30:31;;;;;;;5.38;2.13;;;;;;;26.00;42.35;100981.63;5038076;28;20641;-75
2023/09/10 03:33:02;;;;;;;4.30;1.98;;;;;;;25.91;42.21;100979.25;5036841;28;20055;-74
2023/09/10 03:35:33;;;;;;;6.57;1.85;;;;;;;25.87;45.45;100983.78;5048117;28;20102;-75
2023/09/10 03:38:02;;;;;;;7.82;3.55;;;;;;;25.78;45.24;100983.16;5044543;28;20548;-73
2023/09/10 03:40:30;;;;;;;11.38;3.42;;;;;;;25.73;44.58;100987.75;5045594;28;20056;-73
2023/09/10 03:42:59;;;;;;;5.38;2.60;;;;;;;25.67;45.03;100986.97;5051386;28;20057;-73
2023/09/10 03:45:28;;;;;;;6.45;3.03;;;;;;;25.55;43.21;100975.91;5060762;28;20060;-73
2023/09/10 03:47:59;;;;;;;5.53;3.05;;;;;;;25.49;43.45;100992.81;5053140;28;20667;-78
2023/09/10 03:50:29;;;;;;;;;;;;;;;25.44;44.20;101000.03;5044488;28;20100;-77
2023/09/10 03:52:57;;;;;;;4.97;2.78;;;;;;;25.35;45.32;101000.31;5040203;28;19924;-74
2023/09/10 03:55:26;;;;;;;7.18;2.55;;;;;;;25.22;43.44;100998.00;5046235;28;20061;-77
2023/09/10 03:58:10;;;;;;;4.18;2.60;;;;;;;25.18;44.45;101001.63;5042731;28;20126;-78
2023/09/10 04:00:38;;;;;;;6.80;2.45;;;;;;;25.11;45.21;101000.03;5046078;28;20054;-77
2023/09/10 04:03:08;;;;;;;5.32;2.65;;;;;;;25.05;44.90;100995.75;5042409;28;20099;-74
2023/09/10 04:05:38;;;;;;;6.10;3.15;;;;;;;24.99;44.20;101003.88;5034051;28;20497;-76
2023/09/10 04:08:07;;;;;;;8.02;2.55;;;;;;;24.93;45.92;100997.88;5039316;28;20056;-76
2023/09/10 04:10:36;;;;;;;6.10;2.20;;;;;;;24.87;46.30;101010.34;5046142;28;20118;-76
2023/09/10 04:13:05;;;;;;;5.35;2.20;;;;;;;24.76;45.94;101007.13;5042953;28;20072;-75
2023/09/10 04:15:34;;;;;;;4.57;1.83;;;;;;;24.64;44.01;101012.72;5037410;28;20072;-75
2023/09/10 04:18:04;;;;;;;5.22;2.10;;;;;;;24.59;46.45;101009.31;5037553;28;20061;-76
2023/09/10 04:20:33;;;;;;;3.67;2.40;;;;;;;24.55;46.32;101018.22;5044010;28;20075;-76
2023/09/10 04:23:04;;;;;;;3.35;1.73;;;;;;;24.50;45.64;101017.47;5047479;28;20049;-76
2023/09/10 04:25:33;;;;;;;7.30;1.90;;;;;;;24.43;47.22;101025.50;5041647;28;20053;-76
2023/09/10 04:28:04;;;;;;;4.13;2.00;;;;;;;24.37;45.85;101035.38;5034797;28;20079;-77
2023/09/10 04:30:41;;;;;;;4.30;1.77;;;;;;;24.32;48.13;101029.31;5050642;28;20529;-77
2023/09/10 04:33:10;;;;;;;4.72;1.75;;;;;;;24.24;46.69;101033.00;5039640;28;20053;-78
2023/09/10 04:35:39;;;;;;;4.05;1.70;;;;;;;24.18;46.15;101029.63;5043963;28;20095;-79
2023/09/10 04:38:12;;;;;;;4.50;1.95;;;;;;;24.12;48.32;101024.47;5046197;28;20052;-80
2023/09/10 04:40:42;;;;;;;2.75;1.50;;;;;;;24.00;47.56;101029.13;5042517;28;20053;-80
2023/09/10 04:43:11;;;;;;;6.53;1.70;;;;;;;23.82;47.74;101034.81;5046752;28;20139;-80
2023/09/10 04:45:40;;;;;;;4.20;1.63;;;;;;;23.68;49.86;101039.50;5036434;28;20691;-78
2023/09/10 04:48:15;;;;;;;5.38;1.70;;;;;;;23.50;48.43;101015.19;5046889;28;20053;-78
2023/09/10 04:50:43;;;;;;;2.50;1.75;;;;;;;23.55;48.46;101034.47;5041888;28;20049;-77
2023/09/10 04:53:16;;;;;;;6.38;1.80;;;;;;;23.51;48.29;101037.19;5043378;28;20102;-77
2023/09/10 04:55:46;;;;;;;6.68;1.65;;;;;;;23.45;48.73;101037.31;5038589;28;20053;-75
2023/09/10 04:58:17;;;;;;;4.43;1.60;;;;;;;23.35;49.16;101039.25;5033929;28;20594;-76
2023/09/10 05:00:54;;;;;;;4.60;1.60;;;;;;;23.24;49.78;101039.44;5042202;28;20049;-77
2023/09/10 05:03:34;;;;;;;4.88;1.80;;;;;;;23.13;50.26;101046.69;5031154;28;20499;-77
2023/09/10 05:06:21;;;;;;;4.70;1.77;;;;;;;23.04;51.40;101037.16;5032831;28;20057;-80
2023/09/10 05:09:00;;;;;;;6.63;1.88;;;;;;;22.98;51.79;101039.91;5037914;28;20075;-79
2023/09/10 05:11:29;;;;;;;3.58;1.70;;;;;;;22.89;49.82;101040.06;5040808;28;20076;-77
2023/09/10 05:13:58;;;;;;;5.03;1.70;;;;;;;22.83;49.34;101037.50;5039503;28;20048;-79
2023/09/10 05:16:28;;;;;;;4.78;1.83;;;;;;;22.76;50.33;101047.28;5033873;28;20045;-77
2023/09/10 05:18:56;;;;;;;7.82;2.13;;;;;;;22.70;49.89;101043.00;5040202;28;20049;-76
2023/09/10 05:21:25;;;;;;;4.82;1.92;;;;;;;22.57;50.61;101029.13;5045345;28;20055;-77
2023/09/10 05:23:53;;;;;;;4.75;2.15;;;;;;;22.56;50.71;101044.94;5037530;28;20095;-75
2023/09/10 05:26:24;;;;;;;4.68;2.50;;;;;;;22.48;50.64;101044.22;5040739;28;20053;-78
2023/09/10 05:28:54;;;;;;;8.35;2.33;;;;;;;22.42;51.77;101046.94;5041321;28;20053;-78
2023/09/10 05:31:23;;;;;;;6.65;2.15;;;;;;;22.35;54.36;101043.53;5047387;28;20067;-76
2023/09/10 05:33:54;;;;;;;6.35;2.17;;;;;;;22.27;55.17;101048.06;5043853;28;20048;-77
2023/09/10 05:36:22;;;;;;;8.55;2.17;;;;;;;22.16;56.00;101045.53;5048121;28;20053;-78
2023/09/10 05:38:52;;;;;;;6.15;2.55;;;;;;;22.09;55.53;101044.72;5044956;28;20509;-77
2023/09/10 05:41:23;;;;;;;4.95;2.20;;;;;;;22.01;55.27;101040.44;5041269;28;20049;-76
2023/09/10 05:43:53;;;;;;;10.05;2.67;;;;;;;21.93;55.42;101037.91;5034827;28;20115;-77
2023/09/10 05:46:21;;;;;;;4.15;2.40;;;;;;;21.85;56.68;101045.03;5039869;28;20064;-77
2023/09/10 05:48:50;;;;;;;11.95;1.85;;;;;;;21.77;60.09;101045.16;5042826;28;20671;-77
2023/09/10 05:51:21;;;;;;;7.95;2.15;;;;;;;21.67;58.89;101057.56;5050599;28;20053;-78
2023/09/10 05:53:49;;;;;;;8.05;2.33;;;;;;;21.61;58.77;101059.38;5044945;28;20091;-77
2023/09/10 05:56:18;;;;;;;5.63;2.10;;;;;;;21.49;58.74;101048.09;5045157;28;20145;-78
2023/09/10 05:58:47;;;;;;;9.35;2.25;;;;;;;21.46;58.15;101056.03;5041907;28;20049;-78
2023/09/10 06:01:18;;;;;;;6.15;2.10;;;;;;;21.38;57.46;101059.59;5043724;28;20953;-77
2023/09/10 06:03:47;;;;;;;6.68;2.40;;;;;;;21.29;57.18;101058.78;5041920;28;20625;-77
2023/09/10 06:06:16;;;;;;;3.60;1.88;;;;;;;21.23;58.14;101060.63;5044767;28;20053;-78
2023/09/10 06:08:44;;;;;;;6.18;1.95;;;;;;;21.17;58.51;101061.56;5049190;28;20101;-78
2023/09/10 06:11:14;;;;;;;3.53;1.85;;;;;;;21.12;58.26;101053.72;5052685;28;20048;-77
2023/09/10 06:13:42;;;;;;;7.18;2.13;;;;;;;21.05;57.35;101057.28;5049845;28;20178;-77
2023/09/10 06:16:11;;;;;;;7.30;2.38;;;;;;;20.99;56.94;101052.06;5053476;28;20667;-77
2023/09/10 06:18:41;;;;;;;5.28;1.83;;;;;;;20.94;57.13;101061.75;5041452;28;20042;-77
2023/09/10 06:21:10;;;;;;;3.38;1.50;;;;;;;20.86;56.43;101060.94;5052720;28;20079;-77
2023/09/10 06:23:38;;;;;;;4.43;1.92;;;;;;;20.79;56.81;101062.75;5056053;28;20048;-77
2023/09/10 06:26:13;;;;;;;3.67;1.75;;;;;;;20.74;58.11;101066.31;5065250;28;20052;-77
2023/09/10 06:28:42;;;;;;;2.88;1.90;;;;;;;20.69;58.60;101061.09;5058332;28;20049;-77
2023/09/10 06:31:10;;;;;;;5.00;2.17;;;;;;;20.65;58.78;101062.84;5069166;28;20040;-78
2023/09/10 06:33:40;;;;;;;6.43;1.88;;;;;;;20.57;59.96;101062.03;5062589;28;20049;-78
2023/09/10 06:36:09;;;;;;;4.22;1.98;;;;;;;20.51;61.80;101069.94;5063802;28;20053;-78
2023/09/10 06:38:47;;;;;;;6.45;2.67;;;;;;;20.41;62.07;101076.13;5052420;28;20068;-78
2023/09/10 06:41:16;;;;;;;6.85;2.25;;;;;;;20.39;62.02;101076.13;5044932;28;20122;-78
2023/09/10 06:43:44;;;;;;;6.47;2.15;;;;;;;20.36;61.90;101080.53;5040383;28;20442;-78
2023/09/10 06:46:15;;;;;;;7.22;2.53;;;;;;;20.31;62.17;101088.44;5043640;28;20056;-78
2023/09/10 06:48:45;;;;;;;6.22;2.88;;;;;;;20.24;61.59;101095.47;5043826;28;20055;-75
2023/09/10 06:51:14;;;;;;;5.57;2.47;;;;;;;20.20;61.43;101096.41;5042930;28;20090;-77
2023/09/10 06:53:42;;;;;;;6.05;2.42;;;;;;;20.15;60.38;101092.03;5046121;28;20106;-77
2023/09/10 06:56:11;;;;;;;4.07;2.30;;;;;;;20.11;61.40;101085.91;5040101;28;20045;-77
2023/09/10 06:58:47;;;;;;;5.43;2.20;;;;;;;20.07;62.22;101090.31;5043286;28;20040;-77
2023/09/10 07:01:18;;;;;;;9.38;2.42;;;;;;;20.02;62.54;101092.09;5040214;28;20060;-77
2023/09/10 07:03:48;;;;;;;8.07;1.70;;;;;;;19.96;62.10;101096.50;5040016;28;20045;-77
2023/09/10 07:06:17;;;;;;;5.80;1.63;;;;;;;19.96;60.93;101097.34;5042166;28;20102;-79
2023/09/10 07:08:46;;;;;;;2.22;1.50;;;;;;;19.92;61.44;101097.38;5046424;28;20049;-78
2023/09/10 07:11:14;;;;;;;3.97;1.38;;;;;;;19.84;61.24;101100.03;5054842;28;20521;-77
2023/09/10 07:13:43;;;;;;;2.85;1.70;;;;;;;19.79;62.19;101099.16;5052017;28;20045;-78
2023/09/10 07:16:11;;;;;;;5.13;1.77;;;;;;;19.74;62.16;101101.78;5039846;28;20530;-78
2023/09/10 07:18:42;;;;;;;1.58;1.23;;;;;;;19.69;62.50;101103.56;5045697;28;20045;-77
2023/09/10 07:21:12;;;;;;;3.80;2.00;;;;;;;19.65;63.04;101101.78;5044134;28;20110;-77
2023/09/10 07:23:40;;;;;;;2.58;1.15;;;;;;;19.62;63.49;101096.56;5045888;28;20196;-77
2023/09/10 07:26:09;;;;;;;3.65;1.65;;;;;;;19.58;63.32;101100.06;5042363;28;20454;-77
2023/09/10 07:28:37;;;;;;;3.50;1.20;;;;;;;19.54;63.46;101093.06;5046613;28;20040;-77
2023/09/10 07:31:07;;;;;;;2.42;1.70;;;;;;;19.52;63.91;101089.59;5042251;28;20061;-77
2023/09/10 07:33:36;;;;;;;2.38;1.50;;;;;;;19.49;64.93;101100.94;5044515;28;20049;-77
2023/09/10 07:36:07;;;;;;;3.00;1.10;;;;;;;19.37;65.22;101080.84;5046803;28;20091;-77
2023/09/10 07:38:37;;;;;;;6.05;1.42;;;;;;;19.38;65.34;101087.84;5044678;28;20077;-77
2023/09/10 07:41:06;;;;;;;5.22;1.55;;;;;;;19.35;66.43;101079.09;5044371;28;20045;-77
2023/09/10 07:43:34;;;;;;;2.38;1.35;;;;;;;19.31;67.13;101078.25;5044654;28;20462;-77
2023/09/10 07:46:03;;;;;;;5.32;1.45;;;;;;;19.26;68.98;101080.00;5042070;28;20060;-77
2023/09/10 07:48:31;;;;;;;2.45;1.23;;;;;;;19.23;70.06;101078.25;5044671;28;20902;-78
2023/09/10 07:51:01;;;;;;;6.32;1.63;;;;;;;19.22;71.20;101070.41;5047517;28;20061;-77
2023/09/10 07:53:29;;;;;;;4.60;1.77;;;;;;;19.17;71.18;101073.03;5043557;28;20049;-76
2023/09/10 07:56:03;;;;;;;3.08;1.30;;;;;;;19.05;70.30;101058.16;5041322;28;20612;-77
2023/09/10 07:58:32;;;;;;;5.75;1.25;;;;;;;19.13;70.31;101070.41;5045389;28;20528;-76
2023/09/10 08:01:00;;;;;;;2.33;1.70;;;;;;;19.10;69.95;101075.63;5042785;28;20546;-78
2023/09/10 08:03:29;;;;;;;4.32;1.77;;;;;;;19.08;69.24;101082.63;5043759;28;20072;-77
2023/09/10 08:05:58;;;;;;;4.45;1.75;;;;;;;19.04;69.67;101071.28;5048102;28;20968;-76
2023/09/10 08:08:26;;;;;;;2.60;1.48;;;;;;;19.00;69.68;101069.53;5041345;28;20051;-78
2023/09/10 08:10:55;;;;;;;3.95;1.50;;;;;;;18.95;70.05;101066.91;5040041;28;20061;-77
2023/09/10 08:13:25;;;;;;;3.92;1.65;;;;;;;18.86;72.12;101072.16;5047228;28;20049;-77
2023/09/10 08:15:56;;;;;;;3.40;1.92;;;;;;;18.76;72.57;101080.81;5052945;28;20045;-77
2023/09/10 08:18:27;;;;;;;8.30;2.20;;;;;;;18.73;72.88;101081.69;5043384;28;20068;-76
2023/09/10 08:20:55;;;;;;;3.17;1.50;;;;;;;18.69;73.53;101085.22;5042737;28;20143;-76
2023/09/10 08:23:24;;;;;;;4.18;1.88;;;;;;;18.63;73.75;101080.81;5044076;28;20052;-78
2023/09/10 08:25:52;;;;;;;4.30;1.30;;;;;;;18.61;73.18;101086.94;5046908;28;20053;-78
2023/09/10 08:28:27;;;;;;;3.72;1.60;;;;;;;18.58;73.33;101089.56;5045689;28;20069;-76
2023/09/10 08:30:56;;;;;;;2.90;1.63;;;;;;;18.55;73.21;101087.78;5040868;28;20053;-77
2023/09/10 08:33:25;;;;;;;3.85;1.60;;;;;;;18.54;73.71;101095.66;5045248;28;20045;-78
2023/09/10 08:35:54;;;;;;;4.22;1.42;;;;;;;18.52;73.87;101092.16;5047194;28;20076;-78
2023/09/10 08:38:23;;;;;;;7.45;1.42;;;;;;;18.50;73.63;101089.53;5042085;28;20562;-77
2023/09/10 08:41:06;;;;;;;4.05;1.77;;;;;;;18.48;73.66;101093.88;5044802;28;20049;-77
2023/09/10 08:43:48;;;;;;;2.72;1.67;;;;;;;18.45;74.13;101100.88;5043019;28;20048;-76
2023/09/10 08:46:16;;;;;;;4.82;1.83;;;;;;;18.41;74.10;101103.47;5045730;28;20044;-77
2023/09/10 08:48:45;;;;;;;3.78;1.42;;;;;;;18.36;74.34;101104.34;5045102;28;20056;-77
2023/09/10 08:51:14;;;;;;;5.70;1.92;;;;;;;18.34;74.85;101103.47;5043673;28;20061;-77
2023/09/10 08:53:46;;;;;;;3.40;1.70;;;;;;;18.29;74.75;101097.34;5052646;28;20048;-77
2023/09/10 08:56:15;;;;;;;3.90;1.60;;;;;;;18.25;74.60;101087.72;5036972;28;20054;-77
2023/09/10 08:58:47;;;;;;;3.33;1.67;;;;;;;18.21;75.39;101085.09;5044714;28;20100;-77
2023/09/10 09:01:16;;;;;;;8.52;1.77;;;;;;;18.17;75.12;101083.34;5044511;28;20048;-77
2023/09/10 09:03:46;;;;;;;6.30;1.83;;;;;;;18.14;75.77;101090.28;5051256;28;20094;-77
2023/09/10 09:06:15;;;;;;;3.10;1.65;;;;;;;18.10;75.53;101093.78;5046840;28;20108;-77
2023/09/10 09:08:49;;;;;;;2.17;1.65;;;;;;;18.06;75.55;101090.28;5052679;28;20045;-77
2023/09/10 09:11:18;;;;;;;3.35;2.10;;;;;;;18.02;76.72;101080.66;5053330;28;20083;-76
2023/09/10 09:13:52;;;;;;;4.00;1.98;;;;;;;18.00;76.53;101074.53;5052142;28;20037;-76
2023/09/10 09:16:21;;;;;;;4.05;1.50;;;;;;;17.93;77.05;101078.00;5067015;28;20126;-77
2023/09/10 09:19:00;;;;;;;2.15;1.50;;;;;;;17.90;77.21;101080.59;5059929;28;20049;-77
2023/09/10 09:21:31;;;;;;;2.42;1.77;;;;;;;17.86;77.65;101073.59;5057668;28;20380;-76
2023/09/10 09:24:02;;;;;;;2.97;1.98;;;;;;;17.82;77.69;101067.50;5040052;28;20046;-76
2023/09/10 09:26:31;;;;;;;3.58;1.67;;;;;;;17.77;78.24;101064.81;5047112;28;20063;-77
2023/09/10 09:29:02;;;;;;;4.10;1.77;;;;;;;17.74;78.11;101062.16;5046509;28;20304;-76
2023/09/10 09:31:44;;;;;;;1.60;1.40;;;;;;;17.72;77.87;101056.03;5050184;28;20147;-76
2023/09/10 09:34:13;;;;;;;3.70;1.70;;;;;;;17.69;78.06;101060.41;5050220;28;20052;-76
2023/09/10 09:36:42;;;;;;;2.05;1.48;;;;;;;17.68;78.51;101053.41;5049075;28;20052;-76
2023/09/10 09:39:12;;;;;;;5.47;2.40;;;;;;;17.64;77.90;101051.63;5048758;28;20552;-76
2023/09/10 09:41:40;;;;;;;2.47;1.85;;;;;;;17.60;77.65;101050.75;5045653;28;20052;-76
2023/09/10 09:44:10;;;;;;;3.90;1.77;;;;;;;17.56;77.58;101060.31;5048613;28;20056;-76
2023/09/10 09:46:39;;;;;;;3.35;1.80;;;;;;;17.52;77.38;101057.69;5046932;28;20105;-75
2023/09/10 09:49:08;;;;;;;2.30;1.30;;;;;;;17.50;77.69;101054.19;5051358;28;20049;-77
2023/09/10 09:51:41;;;;;;;5.55;1.73;;;;;;;17.49;77.49;101045.47;5039690;28;20726;-78
2023/09/10 09:54:10;;;;;;;4.82;1.92;;;;;;;17.47;78.85;101048.94;5046650;28;20561;-77
2023/09/10 09:56:38;;;;;;;2.38;1.33;;;;;;;17.41;80.64;101052.41;5041910;28;20071;-77
2023/09/10 09:59:09;;;;;;;1.80;1.45;;;;;;;17.35;79.83;101050.63;5048848;28;20045;-77
2023/09/10 10:01:41;;;;;;;2.92;1.70;;;;;;;17.33;80.69;101051.47;5047101;28;20057;-77
2023/09/10 10:04:10;;;;;;;5.60;1.65;;;;;;;17.29;81.23;101047.94;5047909;28;20053;-77
2023/09/10 10:06:41;;;;;;;5.57;1.48;;;;;;;17.28;81.83;101059.28;5046931;28;20071;-77
2023/09/10 10:09:09;;;;;;;4.38;1.40;;;;;;;17.26;81.23;101060.16;5047004;28;20123;-77
2023/09/10 10:11:39;;;;;;;2.75;1.70;;;;;;;17.23;80.58;101066.22;5049033;28;20045;-77
2023/09/10 10:14:11;;;;;;;2.78;1.63;;;;;;;17.20;80.81;101066.19;5046690;28;20056;-77
2023/09/10 10:16:39;;;;;;;2.22;1.58;;;;;;;17.12;82.02;101067.91;5042791;28;20053;-77
2023/09/10 10:19:09;;;;;;;2.35;1.63;;;;;;;17.04;82.51;101069.56;5053260;28;20136;-78
2023/09/10 10:21:38;;;;;;;4.90;1.40;;;;;;;17.01;81.30;101072.16;5047272;28;20045;-78
2023/09/10 10:24:11;;;;;;;2.97;1.25;;;;;;;16.99;81.93;101071.25;5044490;28;20045;-76
2023/09/10 10:26:41;;;;;;;4.93;1.60;;;;;;;16.98;82.29;101080.00;5051713;28;20478;-77
2023/09/10 10:29:13;;;;;;;4.53;1.75;;;;;;;16.97;82.23;101073.84;5045841;28;20045;-76
2023/09/10 10:31:44;;;;;;;4.07;1.60;;;;;;;16.95;82.43;101068.63;5047561;28;20065;-79
2023/09/10 10:34:17;;;;;;;6.97;1.73;;;;;;;16.94;82.72;101064.25;5046477;28;20056;-79
2023/09/10 10:37:01;;;;;;;6.45;1.50;;;;;;;16.93;82.97;101059.03;5048357;28;20084;-77
2023/09/10 10:39:39;;;;;;;3.60;1.45;;;;;;;16.91;82.75;101064.25;5050815;28;20092;-78
2023/09/10 10:42:11;;;;;;;1.88;1.50;;;;;;;16.86;82.17;101071.19;5045176;28;20053;-77
2023/09/10 10:44:44;;;;;;;4.40;1.77;;;;;;;16.81;82.77;101071.97;5046838;28;20048;-78
2023/09/10 10:47:19;;;;;;;3.30;1.58;;;;;;;16.77;82.76;101068.44;5049515;28;20049;-77
2023/09/10 10:49:53;;;;;;;3.25;1.42;;;;;;;16.74;83.58;101063.16;5050080;28;20045;-78
2023/09/10 10:52:29;;;;;;;2.60;1.55;;;;;;;16.71;83.15;101063.16;5046852;28;20088;-78
2023/09/10 10:54:58;;;;;;;3.67;1.75;;;;;;;16.69;83.40;101062.25;5043440;28;20049;-78
2023/09/10 10:57:28;;;;;;;2.15;1.45;;;;;;;16.66;83.56;101062.25;5047151;28;20041;-76
2023/09/10 11:00:00;;;;;;;2.60;1.55;;;;;;;16.65;83.94;101060.47;5046333;28;20053;-77
2023/09/10 11:02:36;;;;;;;3.10;1.42;;;;;;;16.64;84.89;101063.97;5044173;28;20138;-77
2023/09/10 11:05:06;;;;;;;2.33;1.33;;;;;;;16.64;84.85;101063.97;5045163;28;20800;-77
2023/09/10 11:07:35;;;;;;;6.00;1.45;;;;;;;16.62;84.73;101065.69;5042694;28;20186;-78
2023/09/10 11:10:36;;;;;;;1.85;1.50;;;;;;;16.59;84.55;101070.88;5044811;28;20049;-78
2023/09/10 11:13:12;;;;;;;1.88;1.00;;;;;;;16.55;83.80;101052.56;5042928;28;20118;-77
2023/09/10 11:16:16;;;;;;;2.13;1.40;;;;;;;16.55;84.88;101054.28;5045380;28;20057;-78
2023/09/10 11:18:46;;;;;;;2.72;1.58;;;;;;;16.54;84.95;101057.78;5050555;28;20163;-77
2023/09/10 11:21:16;;;;;;;5.68;1.70;;;;;;;16.51;85.35;101066.44;5047976;28;20107;-77
2023/09/10 11:24:17;;;;;;;3.15;1.70;;;;;;;16.46;85.58;101068.13;5046626;28;20053;-77
2023/09/10 11:26:45;;;;;;;2.13;1.35;;;;;;;16.42;85.00;101068.94;5043578;28;20060;-77
2023/09/10 11:29:18;;;;;;;4.45;1.70;;;;;;;16.39;85.17;101071.53;5044317;28;20054;-77
2023/09/10 11:31:50;;;;;;;3.25;1.30;;;;;;;16.36;84.82;101076.75;5033968;28;20061;-77
2023/09/10 11:34:45;;;;;;;7.07;1.63;;;;;;;16.30;84.17;101074.06;5028542;28;20058;-78
2023/09/10 11:37:13;;;;;;;3.45;1.52;;;;;;;16.28;85.10;101075.78;4981535;28;20053;-78
2023/09/10 11:39:46;;;;;;;2.78;1.33;;;;;;;16.22;85.89;101079.19;5027684;28;20053;-78
2023/09/10 11:42:14;;;;;;;2.42;1.40;;;;;;;16.15;86.41;101079.09;5027872;28;20144;-77
2023/09/10 11:44:43;;;;;;;4.65;1.83;;;;;;;16.11;86.83;101079.06;5029505;28;20045;-77